Time;durP1;ratioP1;P1;durP2;ratioP2;P2;SDS_P1;SDS_P2;PMS_P1;PMS_P2;Temp;Humidity;BMP_temperature;BMP_pressure;BME280_temperature;BME280_humidity;BME280_pressure;Samples;Min_cycle;Max_cycle;Signal;HPM_P1;HPM_P2
2021/12/13 00:01:14;;;;;;;9.30;6.63;;;2.70;99.90;;;;;;5052054;28;20375;-56
2021/12/13 00:03:49;;;;;;;7.95;7.15;;;2.70;99.90;;;;;;5052209;28;20048;-55
2021/12/13 00:06:22;;;;;;;8.77;6.05;;;2.80;99.90;;;;;;5051787;28;20067;-57
2021/12/13 00:08:53;;;;;;;12.55;6.65;;;2.80;99.90;;;;;;5051045;28;20293;-55
2021/12/13 00:11:27;;;;;;;6.50;5.88;;;2.70;99.90;;;;;;5050987;28;20033;-56
2021/12/13 00:13:58;;;;;;;8.65;6.13;;;2.80;99.90;;;;;;5050185;28;20041;-56
2021/12/13 00:16:32;;;;;;;6.47;5.78;;;2.80;99.90;;;;;;5050733;28;20036;-57
2021/12/13 00:19:03;;;;;;;6.47;5.72;;;2.80;99.90;;;;;;5051699;28;20376;-56
2021/12/13 00:21:37;;;;;;;7.00;6.30;;;2.80;99.90;;;;;;5051539;28;20040;-56
2021/12/13 00:24:23;;;;;;;7.00;6.07;;;2.80;99.90;;;;;;5050938;28;20043;-56
2021/12/13 00:26:51;;;;;;;6.93;6.22;;;2.80;99.90;;;;;;5050383;28;20037;-56
2021/12/13 00:29:23;;;;;;;5.90;5.25;;;2.70;99.90;;;;;;5051017;28;20028;-56
2021/12/13 00:32:08;;;;;;;6.72;5.88;;;2.80;99.90;;;;;;5050691;28;20483;-55
2021/12/13 00:34:40;;;;;;;5.40;4.90;;;2.80;99.90;;;;;;5049177;28;20118;-57
2021/12/13 00:37:21;;;;;;;5.95;5.45;;;2.90;99.90;;;;;;5048777;28;20118;-56
2021/12/13 00:39:52;;;;;;;5.85;5.25;;;2.90;99.90;;;;;;5050533;28;20029;-56
2021/12/13 00:42:23;;;;;;;5.95;5.45;;;2.90;99.90;;;;;;5050117;28;20025;-54
2021/12/13 00:44:53;;;;;;;6.53;5.43;;;2.90;99.90;;;;;;5050255;28;20474;-55
2021/12/13 00:47:26;;;;;;;6.43;5.63;;;2.90;99.90;;;;;;5051240;28;20070;-56
2021/12/13 00:50:25;;;;;;;13.37;6.07;;;2.80;99.90;;;;;;5050842;28;20017;-56
2021/12/13 00:52:53;;;;;;;5.95;5.25;;;2.90;99.90;;;;;;5047475;28;20272;-55
2021/12/13 00:55:26;;;;;;;7.05;5.45;;;2.90;99.90;;;;;;5049444;28;20021;-55
2021/12/13 00:58:05;;;;;;;7.18;5.50;;;3.00;99.90;;;;;;5051005;28;20033;-56
2021/12/13 01:00:33;;;;;;;7.15;6.03;;;2.90;99.90;;;;;;5049778;28;20384;-56
2021/12/13 01:03:22;;;;;;;6.03;5.43;;;2.90;99.90;;;;;;5049642;28;20048;-56
2021/12/13 01:05:57;;;;;;;6.00;5.40;;;2.90;99.90;;;;;;5050964;28;20021;-55
2021/12/13 01:08:51;;;;;;;6.22;5.63;;;2.90;99.90;;;;;;5050775;28;20017;-56
2021/12/13 01:11:30;;;;;;;;;;;2.90;99.90;;;;;;5050724;28;20021;-57
2021/12/13 01:14:16;;;;;;;6.50;5.60;;;2.80;99.90;;;;;;5049700;28;19939;-55
2021/12/13 01:17:12;;;;;;;6.63;6.03;;;2.80;99.90;;;;;;5050639;28;20031;-57
2021/12/13 01:20:11;;;;;;;8.13;6.10;;;2.80;99.90;;;;;;5048986;28;20431;-56
2021/12/13 01:25:41;;;;;;;6.25;5.65;;;2.90;99.90;;;;;;5050020;28;20029;-55
2021/12/13 01:28:20;;;;;;;7.38;5.72;;;2.90;99.90;;;;;;5048898;28;20039;-56
2021/12/13 01:30:59;;;;;;;6.65;5.97;;;2.90;99.90;;;;;;5048811;28;20036;-56
2021/12/13 01:33:27;;;;;;;7.18;6.38;;;2.90;99.90;;;;;;5048318;28;20475;-56
2021/12/13 01:35:56;;;;;;;7.25;5.57;;;2.90;99.90;;;;;;5050373;28;20028;-53
2021/12/13 01:38:35;;;;;;;9.52;6.15;;;3.00;99.90;;;;;;5048366;28;20032;-57
2021/12/13 01:41:11;;;;;;;6.78;6.10;;;3.00;99.90;;;;;;5048939;28;20082;-56
2021/12/13 01:43:42;;;;;;;6.72;6.05;;;3.00;99.90;;;;;;5050634;28;20476;-56
2021/12/13 01:46:09;;;;;;;10.32;6.28;;;2.90;99.90;;;;;;5049756;28;20033;-57
2021/12/13 01:48:37;;;;;;;7.80;6.28;;;3.00;99.90;;;;;;5049388;28;20009;-54
2021/12/13 01:51:10;;;;;;;7.28;6.50;;;3.00;99.90;;;;;;5049983;28;20024;-57
2021/12/13 01:53:58;;;;;;;7.85;6.63;;;2.90;99.90;;;;;;5049970;28;20468;-56
2021/12/13 01:56:44;;;;;;;9.88;6.18;;;2.90;99.90;;;;;;5044586;28;20506;-57
2021/12/13 02:00:21;;;;;;;6.82;6.10;;;2.90;99.90;;;;;;5049038;28;20108;-55
2021/12/13 02:02:23;;;;;;;7.03;6.33;;;2.90;99.90;;;;;;5048911;28;20401;-55
2021/12/13 02:04:58;;;;;;;6.55;5.95;;;2.90;99.90;;;;;;5049776;28;20267;-57
2021/12/13 02:07:28;;;;;;;7.70;6.57;;;2.90;99.90;;;;;;5049607;28;20148;-57
2021/12/13 02:09:57;;;;;;;10.52;6.60;;;2.90;99.90;;;;;;5050141;28;20124;-56
2021/12/13 02:12:28;;;;;;;6.22;5.65;;;2.90;99.90;;;;;;5047107;28;20017;-56
2021/12/13 02:17:46;;;;;;;7.88;7.07;;;2.80;99.90;;;;;;5049089;28;20094;-56
2021/12/13 02:20:23;;;;;;;6.70;6.05;;;2.80;99.90;;;;;;5048301;28;20039;-54
2021/12/13 02:22:50;;;;;;;7.68;5.93;;;2.80;99.90;;;;;;5049741;28;20545;-55
2021/12/13 02:25:25;;;;;;;11.10;8.05;;;2.70;99.90;;;;;;5049712;28;20032;-57
2021/12/13 02:27:55;;;;;;;9.70;7.18;;;2.70;99.90;;;;;;5049845;28;20028;-56
2021/12/13 02:30:27;;;;;;;7.05;6.43;;;2.70;99.90;;;;;;5048440;28;20025;-56
2021/12/13 02:32:53;;;;;;;9.65;6.50;;;2.70;99.90;;;;;;5049799;28;20029;-55
2021/12/13 02:35:23;;;;;;;18.40;8.73;;;2.70;99.90;;;;;;5047653;28;20232;-56
2021/12/13 02:37:49;;;;;;;11.57;8.32;;;2.70;99.90;;;;;;5050082;28;20537;-57
2021/12/13 02:40:18;;;;;;;9.18;6.63;;;2.70;99.90;;;;;;5049160;28;20025;-56
2021/12/13 02:42:45;;;;;;;28.92;14.43;;;2.70;99.90;;;;;;5049627;28;20037;-57
2021/12/13 02:45:17;;;;;;;13.93;9.68;;;2.70;99.90;;;;;;5049727;28;20028;-56
2021/12/13 02:47:51;;;;;;;6.80;6.20;;;2.70;99.90;;;;;;5050056;28;20088;-55
2021/12/13 02:50:32;;;;;;;8.95;6.82;;;2.70;99.90;;;;;;5053324;28;20256;-56
2021/12/13 02:52:59;;;;;;;7.20;6.57;;;2.70;99.90;;;;;;5053039;28;20394;-56
2021/12/13 02:55:28;;;;;;;20.23;11.10;;;2.70;99.90;;;;;;5053554;28;20078;-56
2021/12/13 02:57:57;;;;;;;7.68;6.88;;;2.70;99.90;;;;;;5052757;28;20035;-56
2021/12/13 03:00:54;;;;;;;54.83;22.15;;;2.70;99.90;;;;;;5053162;28;20017;-55
2021/12/13 03:03:26;;;;;;;7.03;6.28;;;2.70;99.90;;;;;;5051812;28;20037;-54
2021/12/13 03:05:54;;;;;;;7.93;6.40;;;2.70;99.90;;;;;;5053401;28;20036;-57
2021/12/13 03:08:28;;;;;;;5.93;5.38;;;2.80;99.90;;;;;;5052316;28;20100;-56
2021/12/13 03:10:59;;;;;;;6.70;5.57;;;2.80;99.90;;;;;;5052846;28;20494;-56
2021/12/13 03:13:26;;;;;;;5.95;5.45;;;2.80;99.90;;;;;;5052561;28;20053;-55
2021/12/13 03:16:10;;;;;;;5.45;5.05;;;2.80;99.90;;;;;;5053060;28;20031;-57
2021/12/13 03:18:59;;;;;;;6.88;6.07;;;2.70;99.90;;;;;;5052385;28;20057;-56
2021/12/13 03:21:45;;;;;;;7.15;6.43;;;2.70;99.90;;;;;;5049348;28;20033;-55
2021/12/13 03:24:19;;;;;;;6.60;5.50;;;2.70;99.90;;;;;;5053091;28;20023;-56
2021/12/13 03:26:48;;;;;;;5.60;5.10;;;2.70;99.90;;;;;;5052805;28;20376;-56
2021/12/13 03:29:25;;;;;;;8.43;5.65;;;2.70;99.90;;;;;;5052868;28;20025;-55
2021/12/13 03:31:55;;;;;;;5.90;5.40;;;2.80;99.90;;;;;;5052943;28;20067;-55
2021/12/13 03:34:46;;;;;;;6.28;5.45;;;2.70;99.90;;;;;;5051163;28;20083;-56
2021/12/13 03:37:22;;;;;;;5.35;4.85;;;2.70;99.90;;;;;;5052493;28;20110;-55
2021/12/13 03:39:52;;;;;;;7.50;6.28;;;2.70;99.90;;;;;;5051456;28;20057;-56
2021/12/13 03:42:28;;;;;;;6.03;5.35;;;2.80;99.90;;;;;;5052216;28;20115;-56
2021/12/13 03:44:59;;;;;;;5.32;4.90;;;2.80;99.90;;;;;;5052528;28;20017;-55
2021/12/13 03:47:38;;;;;;;5.53;4.72;;;2.80;99.90;;;;;;5052246;28;20392;-54
2021/12/13 03:50:22;;;;;;;4.70;4.30;;;2.80;99.90;;;;;;5052308;28;20025;-55
2021/12/13 03:52:55;;;;;;;4.82;4.43;;;2.90;99.90;;;;;;5052409;28;20029;-55
2021/12/13 03:55:24;;;;;;;5.00;4.60;;;2.90;99.90;;;;;;5052498;28;20036;-56
2021/12/13 03:57:55;;;;;;;4.30;4.00;;;2.90;99.90;;;;;;5052169;28;20024;-55
2021/12/13 04:00:25;;;;;;;4.18;3.88;;;2.90;99.90;;;;;;5049307;28;20036;-55
2021/12/13 04:02:56;;;;;;;5.78;4.55;;;2.90;99.90;;;;;;5052030;28;20021;-56
2021/12/13 04:05:25;;;;;;;44.58;15.13;;;2.90;99.90;;;;;;5052406;28;20019;-57
2021/12/13 04:07:56;;;;;;;78.88;31.33;;;2.90;99.90;;;;;;5052083;28;20021;-57
2021/12/13 04:10:25;;;;;;;15.50;9.10;;;2.90;99.90;;;;;;5052268;28;20025;-54
2021/12/13 04:12:54;;;;;;;4.43;4.10;;;2.90;99.90;;;;;;5050782;28;20025;-54
2021/12/13 04:15:52;;;;;;;12.93;7.22;;;2.90;99.90;;;;;;5051605;28;20064;-56
2021/12/13 04:19:08;;;;;;;40.03;18.50;;;2.90;99.90;;;;;;5050509;28;20025;-56
2021/12/13 04:21:56;;;;;;;4.03;3.65;;;2.90;99.90;;;;;;5041774;28;20562;-56
2021/12/13 04:25:00;;;;;;;24.77;12.25;;;2.90;99.90;;;;;;5051086;28;20440;-56
2021/12/13 04:27:40;;;;;;;8.38;5.68;;;2.90;99.90;;;;;;5048692;28;20029;-54
2021/12/13 04:30:22;;;;;;;20.25;10.13;;;2.90;99.90;;;;;;5051473;28;20045;-57
2021/12/13 04:32:56;;;;;;;5.55;4.93;;;2.90;99.90;;;;;;5051319;28;20369;-56
2021/12/13 04:35:24;;;;;;;6.82;5.03;;;2.90;99.90;;;;;;5051271;28;20092;-56
2021/12/13 04:37:53;;;;;;;4.20;3.80;;;2.90;99.90;;;;;;5051933;28;20384;-57
2021/12/13 04:40:29;;;;;;;4.68;3.47;;;2.90;99.90;;;;;;5051223;28;20024;-56
2021/12/13 04:43:00;;;;;;;4.07;3.78;;;3.00;99.90;;;;;;5051191;28;20028;-56
2021/12/13 04:45:28;;;;;;;3.95;3.65;;;2.90;99.90;;;;;;5051539;28;20028;-57
2021/12/13 04:47:58;;;;;;;3.83;3.53;;;2.90;99.90;;;;;;5050053;28;20105;-55
2021/12/13 04:50:45;;;;;;;3.30;3.10;;;3.00;99.90;;;;;;5051401;28;20400;-56
2021/12/13 04:53:21;;;;;;;3.90;3.42;;;3.00;99.90;;;;;;5051243;28;20025;-57
2021/12/13 04:55:48;;;;;;;4.00;3.70;;;3.00;99.90;;;;;;5051037;28;20297;-56
2021/12/13 04:58:17;;;;;;;3.65;3.42;;;3.00;99.90;;;;;;5051076;28;20017;-55
2021/12/13 05:00:49;;;;;;;3.97;3.67;;;3.00;99.90;;;;;;5051084;28;20078;-54
2021/12/13 05:03:17;;;;;;;3.88;3.58;;;3.00;99.90;;;;;;5050933;28;20613;-55
2021/12/13 05:05:45;;;;;;;4.57;4.18;;;3.00;99.90;;;;;;5049822;28;20025;-57
2021/12/13 05:08:14;;;;;;;4.13;3.83;;;3.00;99.90;;;;;;5050732;28;20040;-55
2021/12/13 05:10:47;;;;;;;6.50;5.78;;;2.90;99.90;;;;;;5050832;28;20017;-55
2021/12/13 05:13:23;;;;;;;3.90;3.60;;;2.90;99.90;;;;;;5050468;28;20033;-56
2021/12/13 05:15:58;;;;;;;3.70;3.42;;;3.00;99.90;;;;;;5050902;28;20037;-56
2021/12/13 05:18:28;;;;;;;4.63;3.30;;;3.00;99.90;;;;;;5050827;28;20036;-55
2021/12/13 05:21:02;;;;;;;3.50;3.30;;;3.00;99.90;;;;;;5050783;28;20021;-55
2021/12/13 05:23:30;;;;;;;3.88;3.47;;;3.00;99.90;;;;;;5050911;28;20378;-55
2021/12/13 05:26:02;;;;;;;4.13;3.85;;;3.00;99.90;;;;;;5050527;28;20021;-55
2021/12/13 05:28:39;;;;;;;3.28;3.08;;;3.00;99.90;;;;;;5050821;28;20112;-56
2021/12/13 05:31:10;;;;;;;8.43;7.50;;;2.90;99.90;;;;;;5050647;28;20306;-56
2021/12/13 05:33:39;;;;;;;3.33;3.10;;;2.90;99.90;;;;;;5050741;28;20009;-57
2021/12/13 05:36:09;;;;;;;7.90;4.30;;;3.00;99.90;;;;;;5050333;28;20021;-57
2021/12/13 05:38:43;;;;;;;4.88;4.38;;;2.90;99.90;;;;;;5050622;28;20025;-56
2021/12/13 05:41:25;;;;;;;3.60;3.30;;;2.90;99.90;;;;;;5050111;28;20116;-55
2021/12/13 05:43:58;;;;;;;6.18;4.00;;;2.90;99.90;;;;;;5050441;28;20024;-56
2021/12/13 05:46:37;;;;;;;4.53;4.22;;;3.00;99.90;;;;;;5049751;28;20029;-57
2021/12/13 05:49:06;;;;;;;3.58;3.38;;;3.00;99.90;;;;;;5050099;28;20535;-57
2021/12/13 05:51:35;;;;;;;3.50;3.20;;;3.00;99.90;;;;;;5050591;28;20020;-57
2021/12/13 05:54:08;;;;;;;3.95;3.70;;;3.00;99.90;;;;;;5048829;28;20025;-58
2021/12/13 05:57:00;;;;;;;4.22;3.92;;;3.00;99.90;;;;;;5050323;28;20100;-56
2021/12/13 05:59:30;;;;;;;6.00;3.67;;;3.00;99.90;;;;;;5046940;28;20102;-56
2021/12/13 06:02:17;;;;;;;4.53;4.13;;;3.00;99.90;;;;;;5049995;28;20021;-58
2021/12/13 06:05:07;;;;;;;3.83;3.63;;;2.90;99.90;;;;;;5050288;28;20017;-56
2021/12/13 06:07:36;;;;;;;4.40;4.10;;;3.00;99.90;;;;;;5050276;28;20108;-57
2021/12/13 06:10:15;;;;;;;4.07;3.78;;;3.00;99.90;;;;;;5049803;28;20171;-58
2021/12/13 06:12:44;;;;;;;4.13;3.78;;;3.00;99.90;;;;;;5050229;28;20032;-57
2021/12/13 06:15:15;;;;;;;3.47;3.28;;;3.00;99.90;;;;;;5049525;28;20049;-57
2021/12/13 06:18:07;;;;;;;3.35;3.15;;;3.10;99.90;;;;;;5050250;28;20021;-57
2021/12/13 06:20:54;;;;;;;3.67;3.47;;;3.10;99.90;;;;;;5045587;28;20033;-57
2021/12/13 06:23:28;;;;;;;4.28;3.88;;;3.00;99.90;;;;;;5051032;28;20021;-56
2021/12/13 06:26:01;;;;;;;3.80;3.50;;;3.00;99.90;;;;;;5053944;28;20491;-57
2021/12/13 06:28:33;;;;;;;4.20;3.90;;;3.00;99.90;;;;;;5054035;28;20032;-55
2021/12/13 06:31:11;;;;;;;4.97;4.57;;;3.00;99.90;;;;;;5053826;28;20079;-56
2021/12/13 06:33:52;;;;;;;4.25;3.92;;;2.90;99.90;;;;;;5053787;28;20112;-57
2021/12/13 06:36:30;;;;;;;4.85;4.45;;;2.90;99.90;;;;;;5053205;28;20096;-57
2021/12/13 06:39:05;;;;;;;4.55;4.25;;;2.90;99.90;;;;;;5053245;28;20033;-57
2021/12/13 06:41:33;;;;;;;4.97;4.50;;;2.90;99.90;;;;;;5053834;28;20029;-56
2021/12/13 06:44:17;;;;;;;4.90;4.50;;;2.90;99.90;;;;;;5053515;28;20032;-57
2021/12/13 06:47:11;;;;;;;4.47;4.07;;;2.90;99.90;;;;;;5052307;28;20384;-57
2021/12/13 06:49:43;;;;;;;4.97;4.57;;;2.90;99.90;;;;;;5052881;28;20037;-56
2021/12/13 06:52:11;;;;;;;5.20;4.38;;;2.90;99.90;;;;;;5053272;28;20017;-58
2021/12/13 06:54:39;;;;;;;4.82;4.40;;;2.90;99.90;;;;;;5053625;28;20396;-56
2021/12/13 06:57:15;;;;;;;5.38;4.97;;;3.00;99.90;;;;;;5053318;28;20021;-56
2021/12/13 07:00:00;;;;;;;5.57;5.07;;;3.00;99.90;;;;;;5053802;28;20439;-56
2021/12/13 07:02:37;;;;;;;4.68;4.32;;;3.00;99.90;;;;;;5053423;28;20029;-56
2021/12/13 07:05:09;;;;;;;5.57;5.07;;;3.00;99.90;;;;;;5053333;28;20021;-57
2021/12/13 07:07:55;;;;;;;5.53;5.07;;;3.00;99.90;;;;;;5053161;28;20059;-56
2021/12/13 07:10:35;;;;;;;5.40;4.97;;;3.00;99.90;;;;;;5053031;28;20017;-56
2021/12/13 07:13:08;;;;;;;5.57;4.97;;;3.00;99.90;;;;;;5051618;28;20033;-57
2021/12/13 07:15:37;;;;;;;7.30;6.63;;;3.00;99.90;;;;;;5053096;28;20037;-57
2021/12/13 07:18:22;;;;;;;7.85;6.95;;;3.00;99.90;;;;;;5051558;28;20033;-56
2021/12/13 07:21:16;;;;;;;8.23;5.97;;;3.00;99.90;;;;;;5053037;28;20037;-56
2021/12/13 07:23:52;;;;;;;;;;;3.00;99.90;;;;;;5052447;28;20029;-57
2021/12/13 07:26:32;;;;;;;6.55;5.95;;;3.00;99.90;;;;;;5051500;28;19994;-58
2021/12/13 07:28:59;;;;;;;6.95;5.95;;;3.00;99.90;;;;;;5051485;28;20122;-57
2021/12/13 07:31:26;;;;;;;5.95;5.32;;;3.10;99.90;;;;;;5051577;28;20021;-57
2021/12/13 07:33:52;;;;;;;6.43;5.82;;;3.10;99.90;;;;;;5050905;28;20024;-57
2021/12/13 07:36:20;;;;;;;4.82;4.43;;;3.10;99.90;;;;;;5050788;28;20107;-58
2021/12/13 07:38:49;;;;;;;6.03;5.53;;;3.10;99.90;;;;;;5053006;28;20104;-58
2021/12/13 07:41:16;;;;;;;7.38;5.22;;;3.10;99.90;;;;;;5052143;28;20049;-58
2021/12/13 07:43:44;;;;;;;6.80;5.93;;;3.10;99.90;;;;;;5052428;28;20021;-58
2021/12/13 07:46:27;;;;;;;6.10;5.60;;;3.20;99.90;;;;;;5050850;28;20024;-57
2021/12/13 07:48:59;;;;;;;5.68;5.18;;;3.20;99.90;;;;;;5052185;28;20547;-58
2021/12/13 07:51:35;;;;;;;6.05;5.55;;;3.30;99.90;;;;;;5051750;28;20040;-58
2021/12/13 07:54:09;;;;;;;5.63;5.13;;;3.20;99.90;;;;;;5050990;28;20163;-58
2021/12/13 07:56:35;;;;;;;6.13;5.63;;;3.30;99.90;;;;;;5052497;28;20380;-58
2021/12/13 07:59:04;;;;;;;5.13;4.72;;;3.30;99.90;;;;;;5052222;28;20029;-58
2021/12/13 08:01:34;;;;;;;5.45;5.00;;;3.30;99.90;;;;;;5052151;28;20088;-57
2021/12/13 08:04:10;;;;;;;4.15;3.60;;;3.40;99.90;;;;;;5052483;28;20418;-57
2021/12/13 08:07:07;;;;;;;4.07;3.78;;;3.40;99.90;;;;;;5052151;28;20028;-58
2021/12/13 08:09:39;;;;;;;4.53;4.13;;;3.50;99.90;;;;;;5052017;28;20124;-57
2021/12/13 08:12:17;;;;;;;4.07;3.78;;;3.50;99.90;;;;;;5051992;28;20025;-58
2021/12/13 08:14:45;;;;;;;8.07;3.78;;;3.50;99.90;;;;;;5052009;28;20045;-58
2021/12/13 08:17:18;;;;;;;4.10;3.85;;;3.50;99.90;;;;;;5051851;28;20025;-58
2021/12/13 08:19:50;;;;;;;;;;;3.60;99.90;;;;;;5052599;28;20078;-58
2021/12/13 08:22:19;;;;;;;4.70;4.30;;;3.60;99.90;;;;;;5050316;28;19912;-58
2021/12/13 08:25:00;;;;;;;24.63;12.80;;;3.60;99.90;;;;;;5051921;28;20025;-58
2021/12/13 08:27:31;;;;;;;5.00;4.60;;;3.60;99.90;;;;;;5051800;28;20021;-58
2021/12/13 08:30:09;;;;;;;5.40;5.00;;;3.70;99.90;;;;;;5050136;28;20024;-58
2021/12/13 08:32:36;;;;;;;7.68;4.88;;;3.70;99.90;;;;;;5051825;28;20083;-58
2021/12/13 08:35:04;;;;;;;5.97;5.47;;;3.70;99.90;;;;;;5051434;28;20083;-58
2021/12/13 08:37:37;;;;;;;5.03;4.55;;;3.70;99.90;;;;;;5051588;28;20116;-58
2021/12/13 08:40:16;;;;;;;5.43;5.03;;;3.70;99.90;;;;;;5051437;28;20044;-58
2021/12/13 08:42:44;;;;;;;6.72;5.03;;;3.70;99.90;;;;;;5051497;28;20477;-57
2021/12/13 08:45:16;;;;;;;4.45;4.07;;;3.80;99.90;;;;;;5051107;28;20472;-57
2021/12/13 08:47:45;;;;;;;5.25;4.75;;;3.80;99.90;;;;;;5051305;28;20017;-58
2021/12/13 08:50:18;;;;;;;5.88;5.38;;;3.70;99.90;;;;;;5051117;28;20032;-56
2021/12/13 08:52:46;;;;;;;6.72;4.75;;;3.70;99.90;;;;;;5051333;28;20384;-57
2021/12/13 08:55:11;;;;;;;5.28;4.78;;;3.70;99.90;;;;;;5050926;28;20488;-58
2021/12/13 08:57:55;;;;;;;5.13;4.70;;;3.60;99.90;;;;;;5051353;28;20033;-57
2021/12/13 09:00:42;;;;;;;6.05;4.10;;;3.60;99.90;;;;;;5051324;28;20020;-58
2021/12/13 09:03:17;;;;;;;4.55;4.15;;;3.70;99.90;;;;;;5049731;28;20021;-58
2021/12/13 09:06:04;;;;;;;4.40;4.00;;;3.70;99.90;;;;;;5051078;28;20090;-58
2021/12/13 09:08:42;;;;;;;3.80;3.58;;;3.60;99.90;;;;;;5051339;28;20017;-56
2021/12/13 09:11:20;;;;;;;3.92;3.63;;;3.70;99.90;;;;;;5049610;28;20487;-57
2021/12/13 09:14:04;;;;;;;4.97;4.57;;;3.70;99.90;;;;;;5050751;28;20041;-57
2021/12/13 09:16:55;;;;;;;4.28;3.88;;;3.70;99.90;;;;;;5050933;28;20035;-57
2021/12/13 09:19:32;;;;;;;4.53;3.78;;;3.80;99.90;;;;;;5051021;28;20463;-56
2021/12/13 09:22:02;;;;;;;5.43;3.88;;;3.90;99.90;;;;;;5050594;28;20025;-57
2021/12/13 09:24:41;;;;;;;6.03;3.70;;;3.90;99.90;;;;;;5050796;28;20029;-57
2021/12/13 09:27:15;;;;;;;4.15;3.85;;;3.90;99.90;;;;;;5050550;28;20017;-58
2021/12/13 09:29:48;;;;;;;;;;;3.90;99.90;;;;;;5051246;28;20017;-57
2021/12/13 09:32:14;;;;;;;5.13;3.80;;;3.90;99.90;;;;;;5050545;28;19930;-57
2021/12/13 09:34:40;;;;;;;4.05;3.75;;;4.00;99.90;;;;;;5050615;28;20032;-57
2021/12/13 09:37:06;;;;;;;4.03;3.72;;;3.90;99.90;;;;;;5050423;28;20025;-57
2021/12/13 09:39:32;;;;;;;7.10;3.83;;;4.00;99.90;;;;;;5050555;28;20059;-57
2021/12/13 09:42:11;;;;;;;3.97;3.60;;;4.10;99.90;;;;;;5050415;28;20078;-57
2021/12/13 09:44:58;;;;;;;3.80;3.50;;;4.20;99.90;;;;;;5050475;28;20017;-57
2021/12/13 09:47:32;;;;;;;3.30;3.10;;;4.20;99.90;;;;;;5050390;28;20072;-58
2021/12/13 09:49:57;;;;;;;3.92;3.63;;;4.20;99.90;;;;;;5050391;28;20017;-58
2021/12/13 09:52:28;;;;;;;4.00;3.70;;;4.30;99.90;;;;;;5050396;28;20379;-57
2021/12/13 09:54:55;;;;;;;3.97;3.67;;;4.40;99.90;;;;;;5050575;28;20029;-57
2021/12/13 09:57:30;;;;;;;3.50;3.30;;;4.40;99.90;;;;;;5049525;28;20099;-57
2021/12/13 09:59:56;;;;;;;4.65;4.35;;;4.40;99.90;;;;;;5050382;28;20211;-57
2021/12/13 10:02:48;;;;;;;4.07;3.78;;;4.50;99.90;;;;;;5050025;28;20061;-58
2021/12/13 10:05:18;;;;;;;3.30;3.10;;;4.50;99.90;;;;;;5048749;28;20121;-57
2021/12/13 10:07:52;;;;;;;4.22;3.92;;;4.40;99.90;;;;;;5050282;28;20029;-58
2021/12/13 10:10:26;;;;;;;3.85;3.55;;;4.50;99.90;;;;;;5050119;28;20115;-58
2021/12/13 10:12:55;;;;;;;;;;;4.50;99.90;;;;;;5051019;28;20032;-58
2021/12/13 10:15:39;;;;;;;3.80;3.50;;;4.60;99.90;;;;;;5048605;28;19921;-58
2021/12/13 10:18:14;;;;;;;3.50;3.30;;;4.70;99.90;;;;;;5049978;28;20047;-58
2021/12/13 10:21:08;;;;;;;3.60;3.30;;;4.80;99.90;;;;;;5050007;28;20022;-58
2021/12/13 10:23:38;;;;;;;4.05;3.75;;;4.80;99.90;;;;;;5050210;28;20069;-58
2021/12/13 10:26:08;;;;;;;3.35;3.15;;;4.80;99.90;;;;;;5053824;28;20702;-57
2021/12/13 10:28:39;;;;;;;4.20;3.90;;;4.70;99.90;;;;;;5069767;28;20220;-58
2021/12/13 10:31:18;;;;;;;4.28;3.85;;;4.70;99.90;;;;;;5068566;28;20036;-58
2021/12/13 10:33:45;;;;;;;5.43;5.00;;;4.80;99.90;;;;;;5070124;28;20025;-58
2021/12/13 10:36:11;;;;;;;4.38;4.00;;;4.70;99.90;;;;;;5070385;28;20463;-58
2021/12/13 10:39:00;;;;;;;4.47;4.18;;;4.70;99.90;;;;;;5069727;28;20070;-58
2021/12/13 10:41:31;;;;;;;4.72;4.32;;;4.70;99.90;;;;;;5069680;28;20512;-58
2021/12/13 10:44:01;;;;;;;4.88;4.47;;;4.70;99.90;;;;;;5069613;28;20025;-58
2021/12/13 10:46:34;;;;;;;4.72;4.35;;;4.70;99.90;;;;;;5069944;28;20020;-58
2021/12/13 10:49:14;;;;;;;5.85;5.35;;;4.70;99.90;;;;;;5069693;28;20027;-58
2021/12/13 10:51:44;;;;;;;5.68;4.78;;;4.70;99.90;;;;;;5069833;28;20035;-58
2021/12/13 10:54:17;;;;;;;5.90;5.40;;;4.70;99.90;;;;;;5069590;28;20024;-58
2021/12/13 10:56:48;;;;;;;5.65;5.15;;;4.70;99.90;;;;;;5069870;28;20029;-58
2021/12/13 10:59:20;;;;;;;4.85;4.45;;;4.70;99.90;;;;;;5069622;28;20020;-57
2021/12/13 11:01:51;;;;;;;6.45;5.85;;;4.70;99.90;;;;;;5069717;28;20020;-58
2021/12/13 11:04:35;;;;;;;5.00;4.60;;;4.60;99.90;;;;;;5069432;28;20025;-58
2021/12/13 11:07:01;;;;;;;;;;;4.70;99.90;;;;;;5070195;28;20044;-58
2021/12/13 11:09:29;;;;;;;4.90;4.50;;;4.80;99.90;;;;;;5069901;28;19912;-55
2021/12/13 11:12:27;;;;;;;5.22;4.80;;;4.90;99.90;;;;;;5073147;28;20025;-59
2021/12/13 11:15:00;;;;;;;5.43;4.43;;;5.10;99.90;;;;;;5071971;28;20095;-59
2021/12/13 11:17:31;;;;;;;4.68;4.15;;;5.20;99.90;;;;;;5073092;28;20032;-59
2021/12/13 11:20:12;;;;;;;4.95;4.55;;;5.20;99.90;;;;;;5072955;28;20440;-59
2021/12/13 11:22:38;;;;;;;5.30;4.63;;;5.20;99.90;;;;;;5073004;28;20029;-59
2021/12/13 11:25:27;;;;;;;4.03;3.70;;;5.20;99.90;;;;;;5072775;28;20020;-59
2021/12/13 11:27:53;;;;;;;3.55;3.35;;;5.30;99.90;;;;;;5071505;28;20123;-59
2021/12/13 11:30:23;;;;;;;3.70;3.40;;;5.20;99.90;;;;;;5072807;28;20024;-58
2021/12/13 11:33:44;;;;;;;3.40;3.15;;;5.20;99.90;;;;;;5072905;28;20025;-59
2021/12/13 11:36:50;;;;;;;3.50;3.20;;;5.20;99.90;;;;;;5070905;28;20033;-58
2021/12/13 11:39:18;;;;;;;3.58;3.38;;;5.20;99.90;;;;;;5072505;28;20397;-59
2021/12/13 11:42:32;;;;;;;3.60;3.40;;;5.20;99.90;;;;;;5072642;28;20032;-57
2021/12/13 11:45:12;;;;;;;3.90;3.63;;;5.10;99.90;;;;;;5070037;28;20041;-57
2021/12/13 11:47:44;;;;;;;3.85;3.60;;;5.10;99.90;;;;;;5072657;28;20017;-58
2021/12/13 11:50:34;;;;;;;4.70;4.30;;;5.00;99.90;;;;;;5072440;28;20024;-58
2021/12/13 11:53:37;;;;;;;3.42;3.13;;;5.00;99.90;;;;;;5072612;28;20039;-58
2021/12/13 11:56:28;;;;;;;4.28;3.88;;;5.00;99.90;;;;;;5072304;28;20476;-58
2021/12/13 11:59:31;;;;;;;3.40;3.20;;;5.00;99.90;;;;;;5072287;28;20017;-58
2021/12/13 12:02:06;;;;;;;3.45;3.15;;;5.00;99.90;;;;;;5072381;28;20021;-58
2021/12/13 12:05:06;;;;;;;3.83;3.47;;;5.00;99.90;;;;;;5072280;28;20510;-58
2021/12/13 12:08:05;;;;;;;3.88;3.58;;;5.10;99.90;;;;;;5072207;28;20035;-58
2021/12/13 12:10:40;;;;;;;3.90;3.70;;;5.10;99.90;;;;;;5072200;28;20433;-58
2021/12/13 12:13:42;;;;;;;3.90;3.60;;;5.20;99.90;;;;;;5071840;28;20024;-58
2021/12/13 12:16:10;;;;;;;3.70;3.40;;;5.30;99.90;;;;;;5072015;28;20511;-58
2021/12/13 12:18:38;;;;;;;5.03;3.85;;;5.30;99.90;;;;;;5072154;28;20052;-58
2021/12/13 12:21:43;;;;;;;5.20;4.70;;;5.30;99.90;;;;;;5070751;28;20029;-58
2021/12/13 12:24:23;;;;;;;8.38;6.03;;;5.40;99.90;;;;;;5071779;28;20078;-59
2021/12/13 12:27:11;;;;;;;12.15;6.05;;;5.50;99.90;;;;;;5071791;28;20067;-58
2021/12/13 12:29:41;;;;;;;11.30;7.18;;;5.60;99.90;;;;;;5071446;28;20025;-59
2021/12/13 12:32:18;;;;;;;35.58;14.60;;;5.60;99.90;;;;;;5071573;28;20029;-59
2021/12/13 12:34:48;;;;;;;15.05;9.07;;;5.70;99.90;;;;;;5071704;28;20059;-58
2021/12/13 12:37:51;;;;;;;27.50;13.38;;;5.90;99.90;;;;;;5071653;28;20056;-59
2021/12/13 12:40:24;;;;;;;4.65;3.67;;;6.10;99.90;;;;;;5071374;28;20036;-59
2021/12/13 12:42:53;;;;;;;3.55;3.25;;;6.00;99.90;;;;;;5071490;28;20082;-58
2021/12/13 12:45:41;;;;;;;3.40;3.10;;;6.00;99.90;;;;;;5069974;28;20134;-57
2021/12/13 12:48:22;;;;;;;3.80;3.50;;;5.80;99.90;;;;;;5071337;28;20028;-58
2021/12/13 12:50:49;;;;;;;3.85;3.55;;;5.70;99.90;;;;;;5071297;28;20032;-58
2021/12/13 12:53:29;;;;;;;4.55;3.92;;;5.50;99.90;;;;;;5071295;28;20023;-58
2021/12/13 12:56:03;;;;;;;3.70;3.40;;;5.50;99.90;;;;;;5071242;28;20287;-58
2021/12/13 12:58:44;;;;;;;3.17;2.92;;;5.50;99.90;;;;;;5071233;28;20225;-57
2021/12/13 13:01:25;;;;;;;3.60;3.30;;;5.50;99.90;;;;;;5070899;28;20031;-58
2021/12/13 13:03:53;;;;;;;3.53;3.25;;;5.50;99.90;;;;;;5071188;28;20021;-57
2021/12/13 13:06:24;;;;;;;4.90;3.28;;;5.40;99.90;;;;;;5070950;28;20514;-58
2021/12/13 13:08:53;;;;;;;9.27;5.53;;;5.40;99.90;;;;;;5071058;28;20407;-58
2021/12/13 13:11:37;;;;;;;8.40;5.68;;;5.40;99.90;;;;;;5070364;28;20029;-58
2021/12/13 13:14:32;;;;;;;3.50;3.20;;;5.50;99.90;;;;;;5070606;28;20044;-57
2021/12/13 13:17:04;;;;;;;3.45;3.08;;;5.50;99.90;;;;;;5070192;28;20448;-56
2021/12/13 13:19:32;;;;;;;2.88;2.67;;;5.50;99.90;;;;;;5070856;28;20035;-56
2021/12/13 13:22:22;;;;;;;4.18;3.78;;;5.40;99.90;;;;;;5070218;28;20035;-58
2021/12/13 13:24:52;;;;;;;3.50;3.20;;;5.40;99.90;;;;;;5070655;28;20021;-58
2021/12/13 13:27:21;;;;;;;4.75;4.13;;;5.40;99.90;;;;;;5070661;28;20043;-58
2021/12/13 13:29:47;;;;;;;4.05;3.72;;;5.40;99.90;;;;;;5070727;28;20429;-58
2021/12/13 13:32:18;;;;;;;6.40;5.25;;;5.30;99.90;;;;;;5070280;28;20032;-58
2021/12/13 13:34:54;;;;;;;4.82;4.43;;;5.30;99.90;;;;;;5070710;28;20051;-58
2021/12/13 13:37:30;;;;;;;8.73;4.43;;;5.30;99.90;;;;;;5070500;28;20028;-58
2021/12/13 13:40:01;;;;;;;6.60;3.83;;;5.30;99.90;;;;;;5070110;28;20135;-58
2021/12/13 13:42:32;;;;;;;3.92;3.63;;;5.30;99.90;;;;;;5070049;28;20039;-57
2021/12/13 13:45:17;;;;;;;4.05;3.75;;;5.30;99.90;;;;;;5070243;28;20020;-58
2021/12/13 13:47:59;;;;;;;4.72;4.32;;;5.30;99.90;;;;;;5070391;28;20089;-58
2021/12/13 13:50:31;;;;;;;4.85;4.05;;;5.20;99.90;;;;;;5070130;28;20020;-58